createdAt,value
2018-07-05T00:02:10.550Z,95080.94
2018-07-05T00:04:37.233Z,95081.31
2018-07-05T00:07:03.990Z,95071.70
2018-07-05T00:09:30.712Z,95070.05
2018-07-05T00:11:57.393Z,95068.65
2018-07-05T00:14:24.133Z,95065.48
2018-07-05T00:16:50.778Z,95067.05
2018-07-05T00:19:17.456Z,95064.27
2018-07-05T00:21:44.146Z,95073.65
2018-07-05T00:24:10.821Z,95078.47
2018-07-05T00:26:37.503Z,95086.58
2018-07-05T00:29:04.226Z,95084.23
2018-07-05T00:31:30.907Z,95082.16
2018-07-05T00:33:57.581Z,95084.58
2018-07-05T00:36:24.389Z,95078.47
2018-07-05T00:38:51.037Z,95082.98
2018-07-05T00:41:17.704Z,95071.94
2018-07-05T00:43:44.351Z,95074.12
2018-07-05T00:46:11.026Z,95070.61
2018-07-05T00:48:37.665Z,95074.68
2018-07-05T00:51:04.316Z,95083.88
2018-07-05T00:53:30.973Z,95079.38
2018-07-05T00:55:57.636Z,95079.77
2018-07-05T00:58:24.334Z,95080.26
2018-07-05T01:00:51.006Z,95080.90
2018-07-05T01:03:17.671Z,95076.78
2018-07-05T01:05:44.363Z,95076.14
2018-07-05T01:08:11.058Z,95074.05
2018-07-05T01:10:37.684Z,95073.61
2018-07-05T01:13:04.343Z,95072.48
2018-07-05T01:15:31.079Z,95068.16
2018-07-05T01:17:57.686Z,95074.69
2018-07-05T01:20:24.344Z,95068.25
2018-07-05T01:22:51.027Z,95071.03
2018-07-05T01:25:17.801Z,95063.54
2018-07-05T01:27:44.459Z,95054.44
2018-07-05T01:30:11.113Z,95062.94
2018-07-05T01:32:37.770Z,95059.63
2018-07-05T01:35:04.424Z,95065.52
2018-07-05T01:37:31.078Z,95074.53
2018-07-05T01:39:57.733Z,95065.20
2018-07-05T01:42:24.392Z,95065.41
2018-07-05T01:44:51.053Z,95072.38
2018-07-05T01:47:17.702Z,95068.38
2018-07-05T01:49:44.403Z,95072.59
2018-07-05T01:52:11.049Z,95071.54
2018-07-05T01:54:37.740Z,95074.73
2018-07-05T01:57:04.397Z,95073.34
2018-07-05T01:59:32.787Z,95079.16
2018-07-05T02:01:57.754Z,95075.38
2018-07-05T02:04:24.408Z,95076.08
2018-07-05T02:06:51.076Z,95076.45
2018-07-05T02:09:17.728Z,95075.77
2018-07-05T02:11:44.398Z,95081.08
2018-07-05T02:14:11.073Z,95065.48
2018-07-05T02:16:37.754Z,95075.17
2018-07-05T02:19:04.396Z,95073.67
2018-07-05T02:21:31.154Z,95077.68
2018-07-05T02:23:57.840Z,95071.67
2018-07-05T02:26:24.460Z,95075.67
2018-07-05T02:28:51.149Z,95079.59
2018-07-05T02:31:17.792Z,95070.92
2018-07-05T02:33:44.440Z,95083.98
2018-07-05T02:36:11.133Z,95087.47
2018-07-05T02:38:37.785Z,95091.82
2018-07-05T02:41:04.475Z,95094.98
2018-07-05T02:43:31.126Z,95098.30
2018-07-05T02:45:57.782Z,95099.80
2018-07-05T02:48:24.463Z,95098.41
2018-07-05T02:50:51.091Z,95096.27
2018-07-05T02:53:17.746Z,95104.68
2018-07-05T02:55:44.438Z,95094.88
2018-07-05T02:58:11.089Z,95104.80
2018-07-05T03:00:37.841Z,95095.77
2018-07-05T03:03:04.473Z,95092.34
2018-07-05T03:05:31.122Z,95094.55
2018-07-05T03:07:57.820Z,95086.92
2018-07-05T03:10:24.505Z,95090.72
2018-07-05T03:12:51.162Z,95087.67
2018-07-05T03:15:17.845Z,95088.05
2018-07-05T03:17:44.565Z,95088.68
2018-07-05T03:20:11.237Z,95089.89
2018-07-05T03:22:37.986Z,95091.02
2018-07-05T03:25:04.664Z,95089.12
2018-07-05T03:27:31.339Z,95088.57
2018-07-05T03:29:58.025Z,95094.38
2018-07-05T03:32:24.670Z,95090.77
2018-07-05T03:34:51.333Z,95100.89
2018-07-05T03:37:18.022Z,95103.19
2018-07-05T03:39:44.765Z,95099.94
2018-07-05T03:42:11.378Z,95098.16
2018-07-05T03:44:38.041Z,95094.74
2018-07-05T03:47:04.696Z,95100.57
2018-07-05T03:49:31.423Z,95101.40
2018-07-05T03:51:58.073Z,95101.98
2018-07-05T03:54:24.772Z,95102.23
2018-07-05T03:56:52.434Z,95102.49
2018-07-05T03:59:18.073Z,95107.10
2018-07-05T04:01:44.827Z,95109.11
2018-07-05T04:04:11.488Z,95108.95
2018-07-05T04:06:38.135Z,95105.03
2018-07-05T04:09:04.827Z,95109.58
2018-07-05T04:11:31.485Z,95108.57
2018-07-05T04:13:58.178Z,95111.01
2018-07-05T04:16:24.826Z,95106.97
2018-07-05T04:18:51.474Z,95109.41
2018-07-05T04:21:18.150Z,95109.11
2018-07-05T04:23:44.845Z,95109.81
2018-07-05T04:26:11.492Z,95115.09
2018-07-05T04:28:38.177Z,95113.35
2018-07-05T04:31:04.880Z,95118.37
2018-07-05T04:33:31.527Z,95114.48
2018-07-05T04:35:58.229Z,95118.34
2018-07-05T04:38:24.887Z,95113.34
2018-07-05T04:40:51.540Z,95119.45
2018-07-05T04:43:18.206Z,95126.67
2018-07-05T04:45:44.860Z,95127.65
2018-07-05T04:48:11.510Z,95136.77
2018-07-05T04:50:38.169Z,95129.16
2018-07-05T04:53:04.828Z,95136.12
2018-07-05T04:55:31.504Z,95133.33
2018-07-05T04:57:58.153Z,95135.04
2018-07-05T05:00:28.135Z,95134.88
2018-07-05T05:02:54.767Z,95133.91
2018-07-05T05:05:21.440Z,95128.69
2018-07-05T05:07:48.078Z,95132.81
2018-07-05T05:10:14.718Z,95129.59
2018-07-05T05:12:41.363Z,95129.64
2018-07-05T05:15:08.016Z,95135.34
2018-07-05T05:17:34.685Z,95131.78
2018-07-05T05:20:01.328Z,95130.87
2018-07-05T05:22:28.043Z,95124.41
2018-07-05T05:24:54.652Z,95129.77
2018-07-05T05:27:21.311Z,95126.17
2018-07-05T05:29:47.986Z,95128.61
2018-07-05T05:32:14.625Z,95121.75
2018-07-05T05:34:41.326Z,95126.91
2018-07-05T05:37:08.019Z,95120.33
2018-07-05T05:39:34.613Z,95121.02
2018-07-05T05:42:01.270Z,95124.39
2018-07-05T05:44:27.917Z,95128.84
2018-07-05T05:46:54.631Z,95122.67
2018-07-05T05:49:21.321Z,95117.41
2018-07-05T05:51:48.024Z,95121.40
2018-07-05T05:54:14.712Z,95125.09
2018-07-05T05:56:41.427Z,95127.51
2018-07-05T05:59:08.038Z,95131.41
2018-07-05T06:01:34.670Z,95131.23
2018-07-05T06:04:02.243Z,95133.73
2018-07-05T06:06:28.851Z,95140.84
2018-07-05T06:08:55.525Z,95135.66
2018-07-05T06:11:22.160Z,95134.69
2018-07-05T06:13:48.838Z,95134.38
2018-07-05T06:16:15.493Z,95125.20
2018-07-05T06:18:42.194Z,95134.42
2018-07-05T06:21:08.834Z,95135.02
2018-07-05T06:23:35.473Z,95130.37
2018-07-05T06:26:02.145Z,95140.30
2018-07-05T06:28:28.784Z,95133.47
2018-07-05T06:30:55.815Z,95127.39
2018-07-05T06:33:22.468Z,95130.81
2018-07-05T06:35:49.199Z,95127.17
2018-07-05T06:38:15.852Z,95127.80
2018-07-05T06:40:42.498Z,95118.78
2018-07-05T06:43:09.135Z,95115.23
2018-07-05T06:45:35.828Z,95113.36
2018-07-05T06:48:02.475Z,95116.50
2018-07-05T06:50:29.156Z,95111.08
2018-07-05T06:52:55.809Z,95116.52
2018-07-05T06:55:22.465Z,95113.95
2018-07-05T06:57:49.134Z,95114.20
2018-07-05T07:00:15.814Z,95113.20
2018-07-05T07:02:42.493Z,95106.59
2018-07-05T07:05:09.143Z,95105.91
2018-07-05T07:07:35.790Z,95110.04
2018-07-05T07:10:02.557Z,95109.95
2018-07-05T07:12:29.222Z,95114.52
2018-07-05T07:14:55.918Z,95112.76
2018-07-05T07:17:22.565Z,95110.83
2018-07-05T07:19:49.205Z,95110.57
2018-07-05T07:22:15.894Z,95110.98
2018-07-05T07:24:42.523Z,95112.14
2018-07-05T07:27:09.160Z,95110.53
2018-07-05T07:29:35.891Z,95113.05
2018-07-05T07:32:02.612Z,95115.73
2018-07-05T07:34:29.587Z,95107.21
2018-07-05T07:36:56.278Z,95107.89
2018-07-05T07:39:23.036Z,95107.17
2018-07-05T07:41:49.666Z,95100.71
2018-07-05T07:44:16.267Z,95106.14
2018-07-05T07:46:42.975Z,95101.28
2018-07-05T07:49:09.616Z,95103.08
2018-07-05T07:51:36.444Z,95087.20
2018-07-05T07:54:03.049Z,95088.48
2018-07-05T07:56:29.685Z,95090.78
2018-07-05T07:58:56.361Z,95091.16
2018-07-05T08:01:22.994Z,95092.84
2018-07-05T08:03:49.633Z,95089.08
2018-07-05T08:06:16.268Z,95088.62
2018-07-05T08:08:42.906Z,95089.95
2018-07-05T08:11:09.694Z,95093.34
2018-07-05T08:13:36.421Z,95086.25
2018-07-05T08:16:03.082Z,95092.72
2018-07-05T08:18:29.743Z,95096.05
2018-07-05T08:20:56.589Z,95094.42
2018-07-05T08:23:23.322Z,95096.53
2018-07-05T08:25:50.982Z,95093.60
2018-07-05T08:28:17.606Z,95097.63
2018-07-05T08:30:44.304Z,95096.66
2018-07-05T08:33:10.994Z,95090.88
2018-07-05T08:35:37.675Z,95089.69
2018-07-05T08:38:04.405Z,95092.27
2018-07-05T08:40:31.048Z,95090.84
2018-07-05T08:42:57.691Z,95079.73
2018-07-05T08:45:24.338Z,95084.30
2018-07-05T08:47:50.975Z,95076.55
2018-07-05T08:50:17.607Z,95076.56
2018-07-05T08:52:44.260Z,95073.31
2018-07-05T08:55:10.910Z,95072.48
2018-07-05T08:57:37.824Z,95066.07
2018-07-05T09:00:04.429Z,95076.87
2018-07-05T09:02:31.083Z,95069.67
2018-07-05T09:04:57.723Z,95068.08
2018-07-05T09:07:24.380Z,95065.83
2018-07-05T09:09:51.054Z,95066.64
2018-07-05T09:12:17.748Z,95061.91
2018-07-05T09:14:44.384Z,95052.06
2018-07-05T09:17:11.077Z,95058.02
2018-07-05T09:19:37.741Z,95054.70
2018-07-05T09:22:04.343Z,95053.50
2018-07-05T09:24:31.025Z,95044.31
2018-07-05T09:26:57.687Z,95054.84
2018-07-05T09:29:24.295Z,95050.40
2018-07-05T09:31:50.931Z,95048.45
2018-07-05T09:34:17.610Z,95040.52
2018-07-05T09:36:44.254Z,95047.67
2018-07-05T09:39:10.887Z,95049.01
2018-07-05T09:41:37.527Z,95046.86
2018-07-05T09:44:04.170Z,95050.70
2018-07-05T09:46:30.803Z,95041.14
2018-07-05T09:48:57.442Z,95037.83
2018-07-05T09:51:24.132Z,95037.67
2018-07-05T09:53:50.858Z,95045.48
2018-07-05T09:56:17.493Z,95039.48
2018-07-05T09:58:44.132Z,95037.21
2018-07-05T10:01:10.819Z,95041.16
2018-07-05T10:03:37.429Z,95032.77
2018-07-05T10:06:04.054Z,95029.11
2018-07-05T10:08:30.701Z,95030.43
2018-07-05T10:10:57.354Z,95034.13
2018-07-05T10:13:24.185Z,95032.63
2018-07-05T10:15:50.766Z,95029.53
2018-07-05T10:18:17.434Z,95039.33
2018-07-05T10:20:44.042Z,95042.00
2018-07-05T10:23:10.782Z,95026.05
2018-07-05T10:25:37.424Z,95029.52
2018-07-05T10:28:04.062Z,95035.25
2018-07-05T10:30:30.767Z,95032.34
2018-07-05T10:32:57.426Z,95035.38
2018-07-05T10:35:24.039Z,95033.86
2018-07-05T10:37:50.677Z,95024.47
2018-07-05T10:40:17.317Z,95030.19
2018-07-05T10:42:43.999Z,95023.99
2018-07-05T10:45:10.680Z,95017.27
2018-07-05T10:47:37.384Z,95023.45
2018-07-05T10:50:03.999Z,95024.26
2018-07-05T10:52:30.640Z,95013.15
2018-07-05T10:54:57.378Z,95013.85
2018-07-05T10:57:24.034Z,95013.81
2018-07-05T10:59:50.755Z,95008.63
2018-07-05T11:02:17.411Z,94998.53
2018-07-05T11:04:44.044Z,95004.88
2018-07-05T11:07:10.851Z,94998.09
2018-07-05T11:09:37.531Z,95005.91
2018-07-05T11:12:04.203Z,95009.36
2018-07-05T11:14:31.238Z,95008.66
2018-07-05T11:16:57.868Z,95000.67
2018-07-05T11:19:24.513Z,95006.66
2018-07-05T11:21:51.200Z,95000.64
2018-07-05T11:24:17.848Z,94992.21
2018-07-05T11:26:44.497Z,94989.43
2018-07-05T11:29:11.192Z,94998.25
2018-07-05T11:31:37.863Z,94990.91
2018-07-05T11:34:04.860Z,94999.30
2018-07-05T11:36:31.557Z,94997.37
2018-07-05T11:38:58.165Z,94988.13
2018-07-05T11:41:24.795Z,94984.83
2018-07-05T11:43:51.437Z,94979.52
2018-07-05T11:46:18.180Z,94978.05
2018-07-05T11:48:44.796Z,94978.57
2018-07-05T11:51:11.448Z,94974.83
2018-07-05T11:53:38.241Z,94971.13
2018-07-05T11:56:04.904Z,94975.63
2018-07-05T11:58:31.557Z,94977.54
2018-07-05T12:00:58.219Z,94976.53
2018-07-05T12:03:24.873Z,94976.09
2018-07-05T12:05:52.517Z,94970.51
2018-07-05T12:08:19.210Z,94971.95
2018-07-05T12:10:45.852Z,94968.59
2018-07-05T12:13:12.492Z,94975.11
2018-07-05T12:15:39.154Z,94964.40
2018-07-05T12:18:05.833Z,94968.92
2018-07-05T12:20:32.467Z,94964.63
2018-07-05T12:22:59.151Z,94959.69
2018-07-05T12:25:25.856Z,94960.10
2018-07-05T12:27:52.516Z,94951.80
2018-07-05T12:30:19.167Z,94957.34
2018-07-05T12:32:45.804Z,94948.94
2018-07-05T12:35:13.464Z,94953.70
2018-07-05T12:37:40.114Z,94953.58
2018-07-05T12:40:06.754Z,94963.22
2018-07-05T12:42:33.389Z,94960.22
2018-07-05T12:45:00.109Z,94957.22
2018-07-05T12:47:26.711Z,94951.45
2018-07-05T12:49:53.393Z,94954.66
2018-07-05T12:52:22.184Z,94941.77
2018-07-05T12:54:46.755Z,94944.00
2018-07-05T12:57:13.384Z,94942.97
2018-07-05T12:59:40.046Z,94940.94
2018-07-05T13:02:06.706Z,94933.66
2018-07-05T13:04:33.378Z,94939.42
2018-07-05T13:07:00.133Z,94935.05
2018-07-05T13:09:26.751Z,94940.49
2018-07-05T13:11:53.396Z,94932.33
2018-07-05T13:14:20.042Z,94927.66
2018-07-05T13:16:46.698Z,94922.86
2018-07-05T13:19:13.404Z,94931.31
2018-07-05T13:21:40.043Z,94929.54
2018-07-05T13:24:06.761Z,94925.06
2018-07-05T13:26:33.552Z,94927.75
2018-07-05T13:29:00.229Z,94918.00
2018-07-05T13:31:26.847Z,94920.98
2018-07-05T13:33:53.505Z,94918.07
2018-07-05T13:36:20.147Z,94908.48
2018-07-05T13:38:46.843Z,94913.19
2018-07-05T13:41:13.527Z,94912.80
2018-07-05T13:43:40.140Z,94912.44
2018-07-05T13:46:06.777Z,94913.95
2018-07-05T13:48:33.460Z,94917.03
2018-07-05T13:51:00.151Z,94916.49
2018-07-05T13:53:26.788Z,94922.07
2018-07-05T13:55:53.485Z,94910.34
2018-07-05T13:58:20.129Z,94921.09
2018-07-05T14:00:46.783Z,94927.13
2018-07-05T14:03:13.495Z,94930.23
2018-07-05T14:05:40.126Z,94915.34
2018-07-05T14:08:06.809Z,94927.80
2018-07-05T14:10:34.629Z,94920.45
2018-07-05T14:13:01.270Z,94923.91
2018-07-05T14:15:27.916Z,94921.11
2018-07-05T14:17:54.556Z,94917.45
2018-07-05T14:20:21.267Z,94919.36
2018-07-05T14:22:47.903Z,94917.48
2018-07-05T14:25:14.560Z,94914.61
2018-07-05T14:27:41.197Z,94924.39
2018-07-05T14:30:07.879Z,94918.17
2018-07-05T14:32:34.516Z,94923.27
2018-07-05T14:35:01.200Z,94918.64
2018-07-05T14:37:27.843Z,94912.13
2018-07-05T14:39:54.502Z,94903.23
2018-07-05T14:42:21.139Z,94911.53
2018-07-05T14:44:47.866Z,94906.36
2018-07-05T14:47:14.513Z,94910.52
2018-07-05T14:49:41.147Z,94901.55
2018-07-05T14:52:07.793Z,94903.99
2018-07-05T14:54:34.508Z,94906.11
2018-07-05T14:57:01.155Z,94905.84
2018-07-05T14:59:27.849Z,94907.95
2018-07-05T15:01:54.482Z,94904.88
2018-07-05T15:04:21.203Z,94905.01
2018-07-05T15:06:47.827Z,94900.74
2018-07-05T15:09:14.462Z,94903.05
2018-07-05T15:14:26.860Z,94905.31
2018-07-05T15:16:53.579Z,94895.71
2018-07-05T15:19:20.183Z,94895.17
2018-07-05T15:21:46.820Z,94899.20
2018-07-05T15:24:13.479Z,94895.83
2018-07-05T15:26:40.113Z,94899.99
2018-07-05T15:29:06.799Z,94893.33
2018-07-05T15:31:33.438Z,94886.93
2018-07-05T15:34:00.081Z,94894.11
2018-07-05T15:36:26.749Z,94895.40
2018-07-05T15:38:53.445Z,94891.80
2018-07-05T15:41:20.064Z,94891.75
2018-07-05T15:43:46.735Z,94893.02
2018-07-05T15:46:13.357Z,94893.11
2018-07-05T15:48:39.985Z,94897.20
2018-07-05T15:51:06.628Z,94896.45
2018-07-05T15:53:33.278Z,94894.73
2018-07-05T15:55:59.953Z,94888.81
2018-07-05T15:58:26.620Z,94887.67
2018-07-05T16:00:53.211Z,94883.96
2018-07-05T16:03:19.846Z,94888.78
2018-07-05T16:05:46.469Z,94886.27
2018-07-05T16:08:13.115Z,94890.40
2018-07-05T16:10:39.751Z,94885.38
2018-07-05T16:13:06.395Z,94882.20
2018-07-05T16:15:33.033Z,94883.30
2018-07-05T16:17:59.668Z,94880.44
2018-07-05T16:20:26.307Z,94882.59
2018-07-05T16:22:52.947Z,94881.58
2018-07-05T16:25:19.654Z,94874.27
2018-07-05T16:27:46.286Z,94878.20
2018-07-05T16:30:12.933Z,94878.16
2018-07-05T16:32:39.572Z,94878.38
2018-07-05T16:35:06.252Z,94881.92
2018-07-05T16:37:32.928Z,94874.34
2018-07-05T16:39:59.555Z,94874.08
2018-07-05T16:42:26.315Z,94876.88
2018-07-05T16:44:52.888Z,94874.36
2018-07-05T16:47:19.537Z,94868.42
2018-07-05T16:49:46.193Z,94870.20
2018-07-05T16:52:12.831Z,94875.21
2018-07-05T16:54:39.538Z,94882.02
2018-07-05T16:57:06.181Z,94877.86
2018-07-05T16:59:32.864Z,94881.79
2018-07-05T17:01:59.507Z,94878.84
2018-07-05T17:04:26.157Z,94882.73
2018-07-05T17:06:52.810Z,94881.20
2018-07-05T17:09:19.461Z,94883.83
2018-07-05T17:11:46.101Z,94883.86
2018-07-05T17:14:12.785Z,94885.59
2018-07-05T17:16:39.423Z,94883.58
2018-07-05T17:19:06.124Z,94881.20
2018-07-05T17:21:32.752Z,94885.09
2018-07-05T17:23:59.441Z,94885.04
2018-07-05T17:26:26.169Z,94882.86
2018-07-05T17:28:53.381Z,94882.96
2018-07-05T17:31:20.073Z,94880.24
2018-07-05T17:33:46.708Z,94887.51
2018-07-05T17:36:13.351Z,94881.55
2018-07-05T17:38:40.038Z,94878.11
2018-07-05T17:41:06.709Z,94875.79
2018-07-05T17:43:33.402Z,94889.40
2018-07-05T17:46:00.097Z,94887.61
2018-07-05T17:48:26.669Z,94889.38
2018-07-05T17:50:53.405Z,94892.84
2018-07-05T17:53:20.040Z,94890.69
2018-07-05T17:55:46.718Z,94888.45
2018-07-05T17:58:13.362Z,94893.39
2018-07-05T18:00:39.992Z,94887.70
2018-07-05T18:03:06.641Z,94890.88
2018-07-05T18:05:33.268Z,94888.41
2018-07-05T18:07:59.906Z,94892.63
2018-07-05T18:10:26.543Z,94892.67
2018-07-05T18:12:53.221Z,94895.34
2018-07-05T18:15:19.858Z,94890.41
2018-07-05T18:17:46.539Z,94887.02
2018-07-05T18:20:13.179Z,94883.11
2018-07-05T18:22:39.876Z,94888.88
2018-07-05T18:25:06.513Z,94892.20
2018-07-05T18:27:33.174Z,94889.88
2018-07-05T18:29:59.788Z,94895.27
2018-07-05T18:32:26.450Z,94892.85
2018-07-05T18:34:53.095Z,94900.05
2018-07-05T18:37:19.787Z,94902.84
2018-07-05T18:39:46.533Z,94905.28
2018-07-05T18:42:13.173Z,94909.77
2018-07-05T18:44:39.863Z,94916.10
2018-07-05T18:47:06.543Z,94921.88
2018-07-05T18:49:33.354Z,94918.17
2018-07-05T18:52:00.003Z,94919.56
2018-07-05T18:54:26.630Z,94932.05
2018-07-05T18:56:53.320Z,94924.23
2018-07-05T18:59:19.948Z,94924.13
2018-07-05T19:01:46.599Z,94924.34
2018-07-05T19:04:13.484Z,94927.78
2018-07-05T19:06:40.109Z,94929.63
2018-07-05T19:09:06.747Z,94931.70
2018-07-05T19:11:33.537Z,94929.36
2018-07-05T19:14:00.227Z,94938.79
2018-07-05T19:16:27.060Z,94939.70
2018-07-05T19:18:53.554Z,94935.30
2018-07-05T19:21:20.289Z,94932.98
2018-07-05T19:23:46.893Z,94937.80
2018-07-05T19:26:13.583Z,94937.91
2018-07-05T19:28:40.260Z,94943.38
2018-07-05T19:31:06.895Z,94945.07
2018-07-05T19:33:33.545Z,94942.47
2018-07-05T19:36:00.228Z,94944.13
2018-07-05T19:38:26.857Z,94941.71
2018-07-05T19:40:53.495Z,94937.88
2018-07-05T19:43:20.201Z,94940.18
2018-07-05T19:45:46.840Z,94943.19
2018-07-05T19:48:13.463Z,94937.47
2018-07-05T19:50:40.108Z,94936.18
2018-07-05T19:53:06.791Z,94944.26
2018-07-05T19:55:33.475Z,94940.64
2018-07-05T19:58:00.115Z,94936.18
2018-07-05T20:00:26.846Z,94941.02
2018-07-05T20:02:53.424Z,94932.91
2018-07-05T20:05:20.147Z,94933.02
2018-07-05T20:07:46.781Z,94939.80
2018-07-05T20:10:13.463Z,94937.55
2018-07-05T20:12:40.111Z,94935.51
2018-07-05T20:15:06.883Z,94943.77
2018-07-05T20:17:33.506Z,94938.30
2018-07-05T20:20:00.157Z,94942.94
2018-07-05T20:22:26.844Z,94938.56
2018-07-05T20:24:53.517Z,94940.31
2018-07-05T20:27:20.125Z,94943.37
2018-07-05T20:29:46.806Z,94940.13
2018-07-05T20:32:13.463Z,94945.59
2018-07-05T20:34:40.120Z,94947.36
2018-07-05T20:37:06.753Z,94941.89
2018-07-05T20:39:33.450Z,94943.98
2018-07-05T20:42:03.131Z,94946.98
2018-07-05T20:44:29.760Z,94938.23
2018-07-05T20:46:56.403Z,94941.38
2018-07-05T20:49:23.041Z,94946.69
2018-07-05T20:51:49.712Z,94942.39
2018-07-05T20:54:16.315Z,94938.09
2018-07-05T20:56:42.979Z,94938.48
2018-07-05T20:59:09.700Z,94935.95
2018-07-05T21:01:36.251Z,94936.73
2018-07-05T21:04:02.895Z,94940.22
2018-07-05T21:06:29.544Z,94933.98
2018-07-05T21:08:56.190Z,94940.13
2018-07-05T21:11:24.931Z,94948.96
2018-07-05T21:13:49.479Z,94937.98
2018-07-05T21:16:16.125Z,94937.23
2018-07-05T21:18:42.793Z,94940.40
2018-07-05T21:21:09.387Z,94937.12
2018-07-05T21:23:36.023Z,94940.75
2018-07-05T21:26:02.674Z,94936.86
2018-07-05T21:28:29.306Z,94935.32
2018-07-05T21:30:55.958Z,94940.26
2018-07-05T21:33:22.588Z,94949.01
2018-07-05T21:35:49.236Z,94945.01
2018-07-05T21:38:15.865Z,94945.73
2018-07-05T21:40:42.501Z,94951.61
2018-07-05T21:43:09.144Z,94954.29
2018-07-05T21:45:35.788Z,94948.81
2018-07-05T21:48:02.554Z,94956.70
2018-07-05T21:50:29.194Z,94954.63
2018-07-05T21:52:55.833Z,94946.64
2018-07-05T21:55:22.469Z,94942.95
2018-07-05T21:57:49.123Z,94948.41
2018-07-05T22:00:16.948Z,94954.06
2018-07-05T22:02:42.411Z,94950.71
2018-07-05T22:05:09.054Z,94951.42
2018-07-05T22:07:35.693Z,94947.89
2018-07-05T22:10:02.336Z,94950.14
2018-07-05T22:12:28.970Z,94957.46
2018-07-05T22:14:55.609Z,94948.53
2018-07-05T22:17:22.244Z,94949.47
2018-07-05T22:19:48.885Z,94951.61
2018-07-05T22:22:15.518Z,94950.22
2018-07-05T22:24:42.158Z,94942.64
2018-07-05T22:27:08.787Z,94945.70
2018-07-05T22:29:35.424Z,94945.25
2018-07-05T22:32:02.064Z,94938.53
2018-07-05T22:34:28.701Z,94940.95
2018-07-05T22:36:55.434Z,94935.52
2018-07-05T22:39:22.074Z,94938.42
2018-07-05T22:41:48.810Z,94941.86
2018-07-05T22:44:15.437Z,94936.59
2018-07-05T22:46:42.065Z,94935.95
2018-07-05T22:49:08.714Z,94939.30
2018-07-05T22:51:35.351Z,94936.77
2018-07-05T22:54:01.989Z,94940.69
2018-07-05T22:56:28.623Z,94933.72
2018-07-05T22:58:55.258Z,94934.81
2018-07-05T23:01:21.932Z,94931.45
2018-07-05T23:03:48.551Z,94935.27
2018-07-05T23:06:15.188Z,94927.34
2018-07-05T23:08:41.868Z,94924.00
2018-07-05T23:11:08.466Z,94919.43
2018-07-05T23:13:35.190Z,94923.88
2018-07-05T23:16:01.827Z,94926.48
2018-07-05T23:18:28.466Z,94924.25
2018-07-05T23:20:55.117Z,94926.07
2018-07-05T23:23:21.748Z,94934.28
2018-07-05T23:25:48.423Z,94929.61
2018-07-05T23:28:15.058Z,94928.86
2018-07-05T23:30:41.708Z,94932.74
2018-07-05T23:33:08.336Z,94931.64
2018-07-05T23:35:34.983Z,94925.13
2018-07-05T23:38:01.612Z,94930.06
2018-07-05T23:40:28.257Z,94932.66
2018-07-05T23:42:54.886Z,94930.13
2018-07-05T23:45:21.532Z,94930.78
2018-07-05T23:47:48.181Z,94927.98
2018-07-05T23:50:14.822Z,94923.31
2018-07-05T23:52:41.471Z,94927.23
2018-07-05T23:55:10.797Z,94927.50
2018-07-05T23:57:37.486Z,94926.30
